Map

Track Data

SID SEASON NUMBER BASIN SUBBASIN NAME ISO_TIME NATURE LAT LON WMO_WIND WMO_PRES WMO_AGENCY TRACK_TYPE DIST2LAND LANDFALL IFLAG USA_AGENCY USA_ATCF_ID USA_LAT USA_LON USA_RECORD USA_STATUS USA_WIND USA_PRES USA_SSHS USA_R34_NE USA_R34_SE USA_R34_SW USA_R34_NW USA_R50_NE USA_R50_SE USA_R50_SW USA_R50_NW USA_R64_NE USA_R64_SE USA_R64_SW USA_R64_NW USA_POCI USA_ROCI USA_RMW USA_EYE TOKYO_LAT TOKYO_LON TOKYO_GRADE TOKYO_WIND TOKYO_PRES TOKYO_R50_DIR TOKYO_R50_LONG TOKYO_R50_SHORT TOKYO_R30_DIR TOKYO_R30_LONG TOKYO_R30_SHORT TOKYO_LAND CMA_LAT CMA_LON CMA_CAT CMA_WIND CMA_PRES HKO_LAT HKO_LON HKO_CAT HKO_WIND HKO_PRES NEWDELHI_LAT NEWDELHI_LON NEWDELHI_GRADE NEWDELHI_WIND NEWDELHI_PRES NEWDELHI_CI NEWDELHI_DP NEWDELHI_POCI REUNION_LAT REUNION_LON REUNION_TYPE REUNION_WIND REUNION_PRES REUNION_TNUM REUNION_CI REUNION_RMW REUNION_R34_NE REUNION_R34_SE REUNION_R34_SW REUNION_R34_NW REUNION_R50_NE REUNION_R50_SE REUNION_R50_SW REUNION_R50_NW REUNION_R64_NE REUNION_R64_SE REUNION_R64_SW REUNION_R64_NW BOM_LAT BOM_LON BOM_TYPE BOM_WIND BOM_PRES BOM_TNUM BOM_CI BOM_RMW BOM_R34_NE BOM_R34_SE BOM_R34_SW BOM_R34_NW BOM_R50_NE BOM_R50_SE BOM_R50_SW BOM_R50_NW BOM_R64_NE BOM_R64_SE BOM_R64_SW BOM_R64_NW BOM_ROCI BOM_POCI BOM_EYE BOM_POS_METHOD BOM_PRES_METHOD NADI_LAT NADI_LON NADI_CAT NADI_WIND NADI_PRES WELLINGTON_LAT WELLINGTON_LON WELLINGTON_WIND WELLINGTON_PRES DS824_LAT DS824_LON DS824_STAGE DS824_WIND DS824_PRES TD9636_LAT TD9636_LON TD9636_STAGE TD9636_WIND TD9636_PRES TD9635_LAT TD9635_LON TD9635_WIND TD9635_PRES TD9635_ROCI NEUMANN_LAT NEUMANN_LON NEUMANN_CLASS NEUMANN_WIND NEUMANN_PRES MLC_LAT MLC_LON MLC_CLASS MLC_WIND MLC_PRES USA_GUST BOM_GUST BOM_GUST_PER REUNION_GUST REUNION_GUST_PER USA_SEAHGT USA_SEARAD_NE USA_SEARAD_SE USA_SEARAD_SW USA_SEARAD_NW STORM_SPEED STORM_DIR
1955244N18256 1955 63 EP MM NOT_NAMED 1955-09-01 00:00:00 TS 17.6000 -104.500 45 hurdat_epa main 131 131 O________OO___ hurdat_epa EP041955 17.6000 -104.500 TS 45 0 17.6000 -104.500 TC 45 17.6000 -104.500 2 9 284
1955244N18256 1955 63 EP MM NOT_NAMED 1955-09-01 03:00:00 TS 17.7040 -104.951 main 163 162 P________PP___ EP041955 17.7102 -104.945 TS 45 0 17.7102 -104.945 TC 45 17.6792 -104.978 2 9 282
1955244N18256 1955 63 EP MM NOT_NAMED 1955-09-01 06:00:00 TS 17.7912 -105.409 45 hurdat_epa main 168 168 O________OP___ hurdat_epa EP041955 17.8000 -105.400 TS 45 0 17.8000 -105.400 TC 45 17.7562 -105.445 2 9 280
1955244N18256 1955 63 EP MM NOT_NAMED 1955-09-01 09:00:00 TS 17.8520 -105.870 main 186 186 P________PP___ EP041955 17.8575 -105.865 TS 45 0 17.8575 -105.865 TC 45 17.8300 -105.889 2 9 277
1955244N18256 1955 63 EP MM NOT_NAMED 1955-09-01 12:00:00 TS 17.9000 -106.300 45 hurdat_epa main 214 214 O________OO___ hurdat_epa EP041955 17.9000 -106.300 TS 45 0 17.9000 -106.300 TC 45 17.9000 -106.300 2 8 278
1955244N18256 1955 63 EP MM NOT_NAMED 1955-09-01 15:00:00 TS 17.9529 -106.672 main 237 237 P________PP___ EP041955 17.9499 -106.673 TS 45 0 17.9499 -106.673 TC 45 17.9649 -106.669 2 7 279
1955244N18256 1955 63 EP MM NOT_NAMED 1955-09-01 18:00:00 TS 18.0044 -107.001 45 hurdat_epa main 261 261 O________OP___ hurdat_epa EP041955 18.0000 -107.000 TS 45 0 18.0000 -107.000 TC 45 18.0220 -107.003 2 6 280
1955244N18256 1955 63 EP MM NOT_NAMED 1955-09-01 21:00:00 TS 18.0596 -107.308 main 276 276 P________PP___ EP041955 18.0574 -107.307 TS 45 0 18.0574 -107.307 TC 45 18.0681 -107.310 2 6 280
1955244N18256 1955 63 EP MM NOT_NAMED 1955-09-02 00:00:00 TS 18.1000 -107.600 45 hurdat_epa main 300 300 O________OO___ hurdat_epa EP041955 18.1000 -107.600 TS 45 0 18.1000 -107.600 TC 45 18.1000 -107.600 2 6 275
1955244N18256 1955 63 EP MM NOT_NAMED 1955-09-02 03:00:00 TS 18.1097 -107.909 main 326 326 P________PP___ EP041955 18.1075 -107.908 TS 45 0 18.1075 -107.908 TC 45 18.1184 -107.914 2 6 270
1955244N18256 1955 63 EP MM NOT_NAMED 1955-09-02 06:00:00 TS 18.1045 -108.202 45 hurdat_epa main 353 353 O________OP___ hurdat_epa EP041955 18.1000 -108.200 TS 45 0 18.1000 -108.200 TC 45 18.1225 -108.210 2 5 270
1955244N18256 1955 63 EP MM NOT_NAMED 1955-09-02 09:00:00 TS 18.1091 -108.473 main 380 380 P________PP___ EP041955 18.1075 -108.472 TS 45 0 18.1075 -108.472 TC 45 18.1153 -108.476 2 5 269
1955244N18256 1955 63 EP MM NOT_NAMED 1955-09-02 12:00:00 TS 18.1000 -108.700 45 hurdat_epa main 397 397 O________OO___ hurdat_epa EP041955 18.1000 -108.700 TS 45 0 18.1000 -108.700 TC 45 18.1000 -108.700 2 4 261
1955244N18256 1955 63 EP MM NOT_NAMED 1955-09-02 15:00:00 TS 18.0515 -108.870 main 415 415 P________PP___ EP041955 18.0500 -108.873 TS 45 0 18.0500 -108.873 TC 45 18.0575 -108.860 2 3 251
1955244N18256 1955 63 EP MM NOT_NAMED 1955-09-02 18:00:00 TS 18.0024 -108.996 45 hurdat_epa main 430 430 O________OP___ hurdat_epa EP041955 18.0000 -109.000 TS 45 0 18.0000 -109.000 TC 45 18.0122 -108.980 2 2 251
1955244N18256 1955 63 EP MM NOT_NAMED 1955-09-02 21:00:00 TS 17.9791 -109.091 main 439 439 P________PP___ EP041955 17.9775 -109.093 TS 45 0 17.9775 -109.093 TC 45 17.9857 -109.085 2 2 269
1955244N18256 1955 63 EP MM NOT_NAMED 1955-09-03 00:00:00 TS 18.0000 -109.200 45 hurdat_epa main 448 448 O________OO___ hurdat_epa EP041955 18.0000 -109.200 TS 45 0 18.0000 -109.200 TC 45 18.0000 -109.200 2 3 290
1955244N18256 1955 63 EP MM NOT_NAMED 1955-09-03 03:00:00 TS 18.0784 -109.384 main 461 461 P________PP___ EP041955 18.0775 -109.392 TS 45 0 18.0775 -109.392 TC 45 18.0818 -109.352 2 4 299
1955244N18256 1955 63 EP MM NOT_NAMED 1955-09-03 06:00:00 TS 18.2010 -109.584 45 hurdat_epa main 475 470 O________OP___ hurdat_epa EP041955 18.2000 -109.600 TS 45 0 18.2000 -109.600 TC 45 18.2049 -109.520 2 4 308
1955244N18256 1955 63 EP MM NOT_NAMED 1955-09-03 09:00:00 TS 18.3441 -109.741 main 480 475 P________PP___ EP041955 18.3424 -109.750 TS 45 0 18.3424 -109.750 TC 45 18.3506 -109.702 2 4 315
1955244N18256 1955 63 EP MM NOT_NAMED 1955-09-03 12:00:00 TS 18.5000 -109.900 45 hurdat_epa main 488 480 O________OO___ hurdat_epa EP041955 18.5000 -109.900 TS 45 0 18.5000 -109.900 TC 45 18.5000 -109.900 2 5 313
1955244N18256 1955 63 EP MM NOT_NAMED 1955-09-03 15:00:00 TS 18.6502 -110.090 main 469 458 P________PP___ EP041955 18.6575 -110.085 TS 45 0 18.6575 -110.085 TC 45 18.6209 -110.111 2 5 307
1955244N18256 1955 63 EP MM NOT_NAMED 1955-09-03 18:00:00 TS 18.7885 -110.307 45 hurdat_epa main 459 450 O________OP___ hurdat_epa EP041955 18.8000 -110.300 TS 45 0 18.8000 -110.300 TC 45 18.7425 -110.335 2 5 299
1955244N18256 1955 63 EP MM NOT_NAMED 1955-09-03 21:00:00 TS 18.8936 -110.553 main 451 442 P________PP___ EP041955 18.9000 -110.550 TS 45 0 18.9000 -110.550 TC 45 18.8678 -110.567 2 5 294
1955244N18256 1955 63 EP MM NOT_NAMED 1955-09-04 00:00:00 TS 19.0000 -110.800 45 hurdat_epa main 443 435 O________OO___ hurdat_epa EP041955 19.0000 -110.800 TS 45 0 19.0000 -110.800 TC 45 19.0000 -110.800 2 5 300
1955244N18256 1955 63 EP MM NOT_NAMED 1955-09-04 03:00:00 TS 19.1441 -111.004 main 437 418 P________PP___ EP041955 19.1424 -111.000 TS 45 0 19.1424 -111.000 TC 45 19.1508 -111.021 2 5 308
1955244N18256 1955 63 EP MM NOT_NAMED 1955-09-04 06:00:00 TS 19.3015 -111.209 45 hurdat_epa main 421 413 O________OP___ hurdat_epa EP041955 19.3000 -111.200 TS 45 0 19.3000 -111.200 TC 45 19.3073 -111.243 2 5 307
1955244N18256 1955 63 EP MM NOT_NAMED 1955-09-04 09:00:00 TS 19.4580 -111.448 main 406 404 P________PP___ EP041955 19.4575 -111.442 TS 45 0 19.4575 -111.442 TC 45 19.4602 -111.468 2 6 303
1955244N18256 1955 63 EP MM NOT_NAMED 1955-09-04 12:00:00 TS 19.6000 -111.700 45 hurdat_epa main 408 403 O________OO___ hurdat_epa EP041955 19.6000 -111.700 TS 45 0 19.6000 -111.700 TC 45 19.6000 -111.700 2 5 298
1955244N18256 1955 63 EP MM NOT_NAMED 1955-09-04 15:00:00 TS 19.7099 -111.948 main 408 408 P________PP___ EP041955 19.7075 -111.950 TS 45 0 19.7075 -111.950 TC 45 19.7199 -111.941 2 5 294
1955244N18256 1955 63 EP MM NOT_NAMED 1955-09-04 18:00:00 TS 19.8046 -112.198 45 hurdat_epa main 414 411 O________OP___ hurdat_epa EP041955 19.8000 -112.200 TS 45 0 19.8000 -112.200 TC 45 19.8228 -112.190 2 5 292
1955244N18256 1955 63 EP MM NOT_NAMED 1955-09-04 21:00:00 TS 19.9009 -112.449 main 417 417 P________PP___ EP041955 19.8976 -112.450 TS 45 0 19.8976 -112.450 TC 45 19.9144 -112.444 2 5 293
1955244N18256 1955 63 EP MM NOT_NAMED 1955-09-05 00:00:00 TS 20.0000 -112.700 45 hurdat_epa main 427 O________OO___ hurdat_epa EP041955 20.0000 -112.700 TS 45 0 20.0000 -112.700 TC 45 20.0000 -112.700 2 5 293

About IBTrACS Database

This database is a web-friendly format of International Best Track Archive for Climate Stewardship (IBTrACS), a global best track data archive curated by NOAA dating back to 1842.

Updated: 2021-10-21